Terminal Aerodrome Forecast
Issued by NWS

Current Version | Previous Version | Text Only | Print | Product List | Glossary On
Versions: 1 2 3 4 5 6 7 8 9 10 11 12 13 14 15
000
FTUS43 KBIS 182300
TAFMOT
TAF
KMOT 182335Z 1900/1924 12024G35KT P6SM VCSH SCT080 BKN120
     FM190200 11015KT P6SM -SHRA OVC050
     FM190700 22015KT P6SM FEW050 SCT100
     FM191400 26020G30KT P6SM SCT150=

USA.gov is the U.S. government's official web portal to all federal, state and local government web resources and services.